Time;durP1;ratioP1;P1;durP2;ratioP2;P2;SDS_P1;SDS_P2;PMS_P1;PMS_P2;Temp;Humidity;BMP_temperature;BMP_pressure;BME280_temperature;BME280_humidity;BME280_pressure;Samples;Min_cycle;Max_cycle;Signal;HPM_P1;HPM_P2
2023/06/26 00:00:47;;;;;;;10.00;7.90;;;17.60;1.60;;;;;;5094366;28;20198;-92
2023/06/26 00:03:15;;;;;;;10.27;7.45;;;17.50;25.00;;;;;;5094624;28;20678;-93
2023/06/26 00:05:43;;;;;;;9.50;7.43;;;17.50;97.50;;;;;;5094688;28;20191;-93
2023/06/26 00:08:10;;;;;;;8.93;7.95;;;17.40;99.90;;;;;;5094249;28;20190;-93
2023/06/26 00:10:36;;;;;;;11.68;7.95;;;17.40;99.90;;;;;;5094069;28;20198;-92
2023/06/26 00:13:03;;;;;;;11.10;8.05;;;17.30;99.90;;;;;;5094311;28;20196;-93
2023/06/26 00:15:31;;;;;;;13.50;8.77;;;17.30;99.90;;;;;;5094247;28;20196;-92
2023/06/26 00:17:58;;;;;;;12.60;8.43;;;17.30;99.90;;;;;;5094424;28;20217;-93
2023/06/26 00:20:25;;;;;;;10.77;8.20;;;17.10;1.00;;;;;;5094174;28;20198;-92
2023/06/26 00:22:55;;;;;;;12.77;9.13;;;17.10;1.00;;;;;;5102306;28;20188;-92
2023/06/26 00:25:22;;;;;;;12.73;8.38;;;17.10;1.00;;;;;;5094204;28;20264;-92
2023/06/26 00:27:48;;;;;;;12.30;9.65;;;17.00;1.00;;;;;;5094339;28;20195;-92
2023/06/26 00:30:15;;;;;;;13.77;9.60;;;17.00;1.00;;;;;;5068432;28;20203;-93
2023/06/26 00:32:42;;;;;;;11.68;8.80;;;16.90;3.50;;;;;;5074162;28;20287;-92
2023/06/26 00:35:09;;;;;;;10.85;8.38;;;16.90;99.90;;;;;;5073877;28;20197;-92
2023/06/26 00:37:35;;;;;;;11.82;8.80;;;16.90;99.90;;;;;;5073662;28;20220;-92
2023/06/26 00:40:05;;;;;;;11.15;9.07;;;16.80;99.90;;;;;;5073782;28;20218;-91
2023/06/26 00:42:32;;;;;;;15.00;9.13;;;16.80;1.00;;;;;;5073657;28;20196;-93
2023/06/26 00:44:59;;;;;;;16.63;9.40;;;16.80;1.00;;;;;;5074055;28;20666;-93
2023/06/26 00:47:26;;;;;;;15.10;9.48;;;16.80;1.00;;;;;;5091057;28;20188;-92
2023/06/26 00:49:53;;;;;;;13.32;9.18;;;16.80;1.00;;;;;;5094056;28;20233;-92
2023/06/26 00:52:20;;;;;;;16.63;9.07;;;16.70;1.00;;;;;;5093665;28;20227;-92
2023/06/26 00:54:48;;;;;;;15.23;9.10;;;16.70;1.00;;;;;;5094129;28;20196;-92
2023/06/26 00:57:16;;;;;;;16.45;9.65;;;16.70;1.00;;;;;;5093858;28;20218;-92
2023/06/26 00:59:42;;;;;;;13.70;9.70;;;16.70;1.00;;;;;;5103465;28;20299;-92
2023/06/26 01:02:09;;;;;;;16.90;9.90;;;16.70;1.00;;;;;;5114416;28;20205;-92
2023/06/26 01:04:37;;;;;;;14.07;8.85;;;16.60;1.00;;;;;;5113976;28;20198;-92
2023/06/26 01:07:07;;;;;;;19.27;9.40;;;16.60;1.00;;;;;;5114596;28;20191;-92
2023/06/26 01:09:35;;;;;;;13.55;9.40;;;16.60;1.00;;;;;;5097850;28;20244;-92
2023/06/26 01:12:02;;;;;;;15.25;9.32;;;16.60;1.00;;;;;;5098648;28;20206;-92
2023/06/26 01:14:32;;;;;;;19.02;9.98;;;16.50;1.00;;;;;;5100423;28;20230;-92
2023/06/26 01:17:01;;;;;;;12.25;9.70;;;16.50;39.00;;;;;;5091202;28;20211;-92
2023/06/26 01:19:31;;;;;;;15.18;9.32;;;16.50;99.90;;;;;;5093683;28;20194;-91
2023/06/26 01:22:03;;;;;;;13.27;9.40;;;16.50;99.90;;;;;;5096041;28;20201;-92
2023/06/26 01:24:37;;;;;;;14.10;9.20;;;16.40;99.90;;;;;;5096249;28;20194;-92
2023/06/26 01:27:06;;;;;;;16.40;9.60;;;16.40;99.90;;;;;;5097665;28;20266;-91
2023/06/26 01:29:34;;;;;;;15.75;9.52;;;16.40;99.90;;;;;;5090947;28;20190;-93
2023/06/26 01:32:01;;;;;;;13.07;9.77;;;16.40;99.90;;;;;;5097313;28;20188;-92
2023/06/26 01:34:28;;;;;;;14.48;9.95;;;16.40;99.90;;;;;;5097260;28;20650;-92
2023/06/26 01:36:55;;;;;;;16.88;10.10;;;16.40;99.90;;;;;;5097060;28;20695;-92
2023/06/26 01:39:22;;;;;;;13.02;9.80;;;16.40;1.00;;;;;;5097055;28;20199;-91
2023/06/26 01:41:49;;;;;;;18.30;9.98;;;16.30;1.00;;;;;;5083355;28;20197;-92
2023/06/26 01:44:27;;;;;;;17.83;9.70;;;16.30;1.00;;;;;;5082394;28;20200;-92
2023/06/26 01:47:00;;;;;;;16.33;9.38;;;16.40;1.00;;;;;;5087200;28;20570;-91
2023/06/26 01:49:36;;;;;;;18.55;10.23;;;16.30;1.00;;;;;;5090614;28;20187;-91
2023/06/26 01:52:09;;;;;;;15.80;10.00;;;16.30;1.00;;;;;;5096446;28;20235;-92
2023/06/26 01:54:41;;;;;;;17.55;10.48;;;16.30;1.00;;;;;;5096846;28;20180;-91
2023/06/26 01:57:10;;;;;;;17.42;9.77;;;16.30;1.00;;;;;;5096678;28;20212;-92
2023/06/26 01:59:41;;;;;;;24.08;10.02;;;16.20;1.00;;;;;;5086385;28;20198;-92
2023/06/26 02:02:08;;;;;;;16.13;10.07;;;16.20;1.00;;;;;;5092010;28;20553;-92
2023/06/26 02:04:34;;;;;;;16.48;9.75;;;16.20;1.00;;;;;;5096007;28;20195;-91
2023/06/26 02:07:01;;;;;;;16.15;9.60;;;16.10;1.00;;;;;;5096850;28;20289;-92
2023/06/26 02:09:28;;;;;;;19.10;10.60;;;16.10;1.00;;;;;;5096655;28;20198;-92
2023/06/26 02:11:55;;;;;;;15.25;10.20;;;16.10;1.00;;;;;;5096736;28;20199;-92
2023/06/26 02:14:21;;;;;;;23.45;10.63;;;16.10;1.00;;;;;;5096344;28;20654;-92
2023/06/26 02:16:50;;;;;;;19.85;10.05;;;16.10;1.00;;;;;;5096051;28;20213;-92
2023/06/26 02:19:21;;;;;;;19.52;9.75;;;16.10;1.00;;;;;;5095806;28;20208;-92
2023/06/26 02:21:48;;;;;;;15.77;9.93;;;16.00;1.00;;;;;;5096184;28;20203;-91
2023/06/26 02:24:15;;;;;;;14.25;10.25;;;16.00;1.00;;;;;;5096218;28;20195;-91
2023/06/26 02:26:41;;;;;;;15.63;10.30;;;16.00;1.00;;;;;;5092319;28;20655;-92
2023/06/26 02:29:08;;;;;;;12.32;9.82;;;16.10;1.00;;;;;;5100139;28;20207;-92
2023/06/26 02:31:35;;;;;;;14.10;10.27;;;16.10;1.00;;;;;;5095825;28;20362;-92
2023/06/26 02:34:04;;;;;;;17.23;10.18;;;16.10;1.00;;;;;;5096277;28;20207;-92
2023/06/26 02:36:31;;;;;;;15.55;9.95;;;16.00;6.70;;;;;;5096044;28;20199;-91
2023/06/26 02:38:57;;;;;;;13.88;9.60;;;16.10;42.20;;;;;;5095820;28;20210;-92
2023/06/26 02:41:24;;;;;;;15.40;9.80;;;16.10;99.90;;;;;;5095607;28;20670;-92
2023/06/26 02:43:51;;;;;;;14.63;9.50;;;16.10;99.90;;;;;;5095859;28;20198;-91
2023/06/26 02:46:18;;;;;;;13.93;9.73;;;16.10;99.90;;;;;;5093655;28;20210;-92
2023/06/26 02:48:45;;;;;;;15.95;9.02;;;16.10;99.90;;;;;;5094462;28;20201;-92
2023/06/26 02:51:13;;;;;;;14.50;9.35;;;16.20;40.40;;;;;;5095239;28;20706;-92
2023/06/26 02:53:40;;;;;;;19.02;9.40;;;16.20;1.00;;;;;;5096037;28;20195;-92
2023/06/26 02:56:06;;;;;;;15.50;8.75;;;16.30;1.00;;;;;;5095568;28;20207;-92
2023/06/26 02:58:33;;;;;;;15.68;8.77;;;16.30;1.00;;;;;;5104064;28;20228;-91
2023/06/26 03:01:00;;;;;;;13.07;9.50;;;16.30;1.00;;;;;;5095468;28;20195;-92
2023/06/26 03:03:27;;;;;;;12.60;8.60;;;16.30;1.00;;;;;;5095257;28;20213;-91
2023/06/26 03:05:53;;;;;;;13.73;9.50;;;16.40;1.00;;;;;;5087187;28;20192;-92
2023/06/26 03:08:22;;;;;;;14.32;8.27;;;16.50;1.00;;;;;;5079862;28;20214;-93
2023/06/26 03:10:48;;;;;;;15.50;8.73;;;16.50;99.90;;;;;;5093617;28;20212;-92
2023/06/26 03:13:15;;;;;;;13.05;8.30;;;16.60;99.90;;;;;;5094109;28;20565;-93
2023/06/26 03:15:42;;;;;;;13.88;8.65;;;16.60;99.90;;;;;;5088642;28;20682;-92
2023/06/26 03:18:09;;;;;;;16.63;8.90;;;16.70;99.90;;;;;;5088032;28;20215;-92
2023/06/26 03:20:36;;;;;;;15.40;7.97;;;16.80;99.90;;;;;;5094957;28;20195;-94
2023/06/26 03:23:03;;;;;;;15.38;9.27;;;16.80;87.50;;;;;;5095042;28;20191;-93
2023/06/26 03:25:31;;;;;;;16.00;8.57;;;16.80;61.20;;;;;;5094964;28;20202;-91
2023/06/26 03:27:58;;;;;;;16.73;8.45;;;16.90;5.30;;;;;;5095315;28;20294;-93
2023/06/26 03:30:24;;;;;;;16.13;8.82;;;17.00;1.00;;;;;;5079986;28;20205;-92
2023/06/26 03:32:51;;;;;;;15.80;8.23;;;17.10;1.00;;;;;;5073705;28;20196;-92
2023/06/26 03:35:18;;;;;;;23.17;9.30;;;17.20;1.00;;;;;;5074518;28;20195;-92
2023/06/26 03:37:45;;;;;;;19.30;9.82;;;17.20;1.00;;;;;;5074516;28;20597;-92
2023/06/26 03:40:12;;;;;;;13.70;8.63;;;17.30;1.00;;;;;;5074848;28;20200;-91
2023/06/26 03:42:40;;;;;;;13.57;7.57;;;17.40;1.00;;;;;;5087948;28;20223;-92
2023/06/26 03:45:07;;;;;;;15.77;7.90;;;17.50;99.90;;;;;;5094240;28;20770;-91
2023/06/26 03:47:34;;;;;;;16.55;8.05;;;17.50;1.00;;;;;;5094842;28;20557;-91
2023/06/26 03:50:01;;;;;;;13.48;7.53;;;17.50;1.00;;;;;;5093937;28;20202;-91
2023/06/26 03:52:30;;;;;;;16.73;8.20;;;17.50;1.00;;;;;;5094403;28;20233;-92
2023/06/26 03:54:57;;;;;;;15.45;7.97;;;17.50;1.00;;;;;;5094269;28;20203;-92
2023/06/26 03:57:24;;;;;;;15.40;8.27;;;17.60;1.00;;;;;;5094303;28;20201;-91
2023/06/26 03:59:53;;;;;;;14.48;8.13;;;17.70;47.00;;;;;;5083416;28;20652;-92
2023/06/26 04:02:20;;;;;;;14.52;8.63;;;18.20;1.00;;;;;;5084268;28;20563;-93
2023/06/26 04:04:47;;;;;;;16.00;8.30;;;19.10;99.90;;;;;;5093565;28;20191;-92
2023/06/26 04:07:13;;;;;;;14.38;7.85;;;20.00;1.00;;;;;;5094120;28;20210;-93
2023/06/26 04:09:40;;;;;;;12.18;7.57;;;20.80;1.00;;;;;;5093691;28;20190;-89
2023/06/26 04:12:07;;;;;;;14.10;7.30;;;21.50;1.00;;;;;;5094217;28;20195;-91
2023/06/26 04:14:34;;;;;;;13.77;6.97;;;22.30;99.90;;;;;;5094056;28;20199;-89
2023/06/26 04:17:03;;;;;;;17.85;7.68;;;23.00;1.00;;;;;;5093675;28;20655;-90
2023/06/26 04:19:30;;;;;;;17.58;8.35;;;23.50;1.00;;;;;;5083775;28;20211;-91
2023/06/26 04:21:56;;;;;;;13.15;7.72;;;23.90;99.90;;;;;;5093913;28;20675;-90
2023/06/26 04:24:23;;;;;;;17.13;7.30;;;24.10;99.90;;;;;;5094378;28;20199;-89
2023/06/26 04:26:50;;;;;;;11.70;7.13;;;24.30;99.90;;;;;;5093730;28;20196;-89
2023/06/26 04:29:17;;;;;;;11.52;7.03;;;24.60;69.80;;;;;;5091837;28;20200;-89
2023/06/26 04:31:46;;;;;;;10.40;6.70;;;24.90;1.00;;;;;;5087749;28;20215;-89
2023/06/26 04:34:14;;;;;;;12.00;7.10;;;25.30;1.00;;;;;;5082796;28;20196;-89
2023/06/26 04:36:41;;;;;;;13.00;6.82;;;25.70;1.00;;;;;;5083585;28;20199;-89
2023/06/26 04:39:07;;;;;;;10.77;7.25;;;26.10;1.00;;;;;;5092966;28;20215;-88
2023/06/26 04:41:34;;;;;;;11.38;6.70;;;26.40;1.00;;;;;;5090790;28;20196;-89
2023/06/26 04:44:01;;;;;;;12.27;5.68;;;26.70;1.00;;;;;;5090622;28;20281;-89
2023/06/26 04:46:28;;;;;;;6.93;5.50;;;27.00;1.00;;;;;;5092226;28;20195;-89
2023/06/26 04:48:57;;;;;;;8.38;4.78;;;27.30;1.00;;;;;;5089871;28;20217;-89
2023/06/26 04:51:26;;;;;;;7.68;4.90;;;27.60;99.90;;;;;;5078774;28;20223;-88
2023/06/26 04:53:53;;;;;;;7.07;4.68;;;27.80;99.90;;;;;;5076870;28;20196;-89
2023/06/26 04:56:20;;;;;;;8.27;5.18;;;28.00;99.90;;;;;;5085870;28;20202;-89
2023/06/26 04:58:47;;;;;;;6.22;4.78;;;28.20;99.90;;;;;;5080475;28;20234;-89
2023/06/26 05:01:14;;;;;;;5.93;4.93;;;28.40;99.90;;;;;;5096574;28;20203;-89
2023/06/26 05:03:41;;;;;;;7.25;4.90;;;28.60;99.90;;;;;;5096117;28;20643;-88
2023/06/26 05:06:07;;;;;;;6.05;4.75;;;28.80;99.90;;;;;;5096512;28;20663;-89
2023/06/26 05:08:36;;;;;;;5.57;5.07;;;28.90;99.90;;;;;;5096138;28;20195;-89
2023/06/26 05:11:02;;;;;;;8.65;5.40;;;28.80;99.90;;;;;;5082818;28;20204;-88
2023/06/26 05:13:29;;;;;;;6.18;5.20;;;28.80;99.90;;;;;;5082249;28;20192;-88
2023/06/26 05:15:56;;;;;;;10.27;5.20;;;28.50;99.90;;;;;;5091655;28;20195;-88
2023/06/26 05:18:23;;;;;;;7.55;5.28;;;28.10;99.90;;;;;;5084430;28;20207;-88
2023/06/26 05:20:50;;;;;;;8.30;5.93;;;27.60;99.90;;;;;;5088167;28;20202;-88
2023/06/26 05:23:17;;;;;;;10.82;6.18;;;27.10;99.90;;;;;;5094684;28;20200;-90
2023/06/26 05:25:46;;;;;;;9.77;5.28;;;26.60;99.90;;;;;;5088007;28;20648;-91
2023/06/26 05:28:15;;;;;;;8.13;5.07;;;26.30;99.90;;;;;;5097231;28;20214;-90
2023/06/26 05:30:42;;;;;;;18.60;5.85;;;25.90;99.90;;;;;;5095718;28;20234;-91
2023/06/26 05:33:12;;;;;;;14.75;5.78;;;25.70;99.90;;;;;;5096253;28;20195;-91
2023/06/26 05:35:40;;;;;;;9.57;5.75;;;25.50;99.90;;;;;;5088215;28;20180;-90
2023/06/26 05:38:07;;;;;;;7.07;4.88;;;25.30;99.90;;;;;;5084220;28;20663;-90
2023/06/26 05:40:34;;;;;;;7.45;5.07;;;25.20;99.90;;;;;;5085607;28;20534;-90
2023/06/26 05:43:03;;;;;;;6.97;4.90;;;25.10;99.90;;;;;;5092780;28;20196;-91
2023/06/26 05:45:30;;;;;;;11.77;5.43;;;25.00;99.90;;;;;;5092467;28;20656;-91
2023/06/26 05:47:57;;;;;;;6.00;5.07;;;24.90;99.90;;;;;;5097045;28;20199;-91
2023/06/26 05:50:24;;;;;;;6.75;5.22;;;24.80;99.90;;;;;;5096760;28;20663;-91
2023/06/26 05:52:52;;;;;;;8.02;4.88;;;24.70;99.90;;;;;;5096423;28;20227;-90
2023/06/26 05:55:19;;;;;;;10.02;6.28;;;24.60;99.90;;;;;;5096509;28;20194;-91
2023/06/26 05:57:47;;;;;;;12.07;5.90;;;24.60;99.90;;;;;;5096493;28;20566;-90
2023/06/26 06:00:16;;;;;;;16.42;5.68;;;24.60;99.90;;;;;;5096669;28;20699;-90
2023/06/26 06:02:44;;;;;;;8.70;5.05;;;24.60;99.90;;;;;;5096774;28;20207;-90
2023/06/26 06:05:10;;;;;;;7.93;5.30;;;24.60;99.90;;;;;;5096728;28;20199;-91
2023/06/26 06:07:37;;;;;;;6.05;4.95;;;24.60;99.90;;;;;;5103987;28;20203;-90
2023/06/26 06:10:05;;;;;;;8.07;5.60;;;24.60;99.90;;;;;;5116748;28;20198;-90
2023/06/26 06:12:32;;;;;;;8.35;5.00;;;24.60;99.90;;;;;;5116001;28;20202;-90
2023/06/26 06:14:59;;;;;;;7.65;5.25;;;24.60;99.90;;;;;;5095468;28;20187;-90
2023/06/26 06:17:27;;;;;;;9.18;5.35;;;24.60;99.90;;;;;;5096438;28;20191;-91
2023/06/26 06:19:54;;;;;;;7.80;5.28;;;24.70;99.90;;;;;;5096720;28;20584;-90
2023/06/26 06:22:21;;;;;;;6.03;4.93;;;24.80;99.90;;;;;;5096446;28;20207;-91
2023/06/26 06:24:49;;;;;;;7.70;5.70;;;24.80;99.90;;;;;;5098032;28;20199;-90
2023/06/26 06:27:16;;;;;;;12.25;5.68;;;24.90;99.90;;;;;;5116392;28;20191;-90
2023/06/26 06:29:42;;;;;;;10.25;5.32;;;25.00;99.90;;;;;;5116456;28;20194;-90
2023/06/26 06:32:09;;;;;;;7.18;5.10;;;25.10;99.90;;;;;;5116506;28;20577;-91
2023/06/26 06:34:37;;;;;;;8.48;5.03;;;25.20;99.90;;;;;;5116393;28;20202;-90
2023/06/26 06:37:05;;;;;;;7.28;5.20;;;25.20;99.90;;;;;;5116401;28;20195;-90
2023/06/26 06:39:31;;;;;;;5.97;4.80;;;25.30;99.90;;;;;;5116136;28;20210;-90
2023/06/26 06:41:58;;;;;;;7.32;5.05;;;25.30;99.90;;;;;;5116471;28;20203;-90
2023/06/26 06:44:25;;;;;;;7.18;5.05;;;25.40;99.90;;;;;;5099215;28;20203;-91
2023/06/26 06:46:52;;;;;;;6.07;4.80;;;25.60;99.90;;;;;;5095760;28;20196;-90
2023/06/26 06:49:19;;;;;;;6.68;4.55;;;25.60;99.90;;;;;;5095990;28;20209;-90
2023/06/26 06:51:47;;;;;;;4.70;4.22;;;25.60;99.90;;;;;;5095384;28;20307;-91
2023/06/26 06:54:16;;;;;;;7.53;4.80;;;25.70;99.90;;;;;;5095425;28;20197;-91
2023/06/26 06:56:43;;;;;;;7.10;4.63;;;25.80;99.90;;;;;;5095623;28;20196;-90
2023/06/26 06:59:09;;;;;;;15.18;4.80;;;25.80;99.90;;;;;;5087647;28;20216;-91
2023/06/26 07:01:36;;;;;;;10.55;4.60;;;25.80;99.90;;;;;;5095577;28;20209;-90
2023/06/26 07:04:03;;;;;;;9.52;4.85;;;25.80;99.90;;;;;;5095393;28;20196;-90
2023/06/26 07:06:30;;;;;;;5.85;4.35;;;25.90;99.90;;;;;;5095846;28;20195;-90
2023/06/26 07:08:58;;;;;;;6.25;4.30;;;26.00;99.90;;;;;;5091618;28;20615;-91
2023/06/26 07:11:25;;;;;;;10.32;4.20;;;26.00;99.90;;;;;;5095054;28;20199;-91
2023/06/26 07:13:52;;;;;;;7.15;4.07;;;26.00;99.90;;;;;;5102660;28;20196;-91
2023/06/26 07:16:18;;;;;;;5.90;4.43;;;26.10;99.90;;;;;;5094840;28;20217;-90
2023/06/26 07:18:45;;;;;;;13.32;4.47;;;26.10;99.90;;;;;;5093889;28;20234;-91
2023/06/26 07:21:12;;;;;;;5.43;4.63;;;26.20;99.90;;;;;;5094429;28;20191;-91
2023/06/26 07:23:39;;;;;;;7.43;4.30;;;26.20;99.90;;;;;;5096336;28;20195;-91
2023/06/26 07:26:07;;;;;;;7.03;4.32;;;26.30;99.90;;;;;;5095282;28;20651;-91
2023/06/26 07:28:34;;;;;;;5.82;4.40;;;26.30;99.90;;;;;;5089541;28;20192;-91
2023/06/26 07:31:00;;;;;;;9.18;4.22;;;26.40;99.90;;;;;;5095096;28;20199;-91
2023/06/26 07:33:27;;;;;;;12.88;4.93;;;26.40;99.90;;;;;;5095457;28;20207;-91
2023/06/26 07:35:54;;;;;;;6.00;4.65;;;26.50;99.90;;;;;;5074547;28;20245;-91
2023/06/26 07:38:21;;;;;;;6.13;5.53;;;26.60;99.90;;;;;;5074879;28;20547;-92
2023/06/26 07:40:48;;;;;;;5.30;4.70;;;26.60;99.90;;;;;;5074282;28;20240;-90
2023/06/26 07:43:16;;;;;;;7.93;5.35;;;26.70;99.90;;;;;;5074546;28;20700;-91
2023/06/26 07:45:43;;;;;;;5.65;4.70;;;26.80;99.90;;;;;;5074400;28;20287;-91
2023/06/26 07:48:09;;;;;;;6.05;4.53;;;26.90;99.90;;;;;;5092937;28;20203;-90
2023/06/26 07:50:36;;;;;;;38.83;26.10;;;27.00;99.90;;;;;;5078203;28;20192;-91
2023/06/26 07:53:05;;;;;;;8.98;7.35;;;26.90;99.90;;;;;;5086354;28;20219;-90
2023/06/26 07:55:32;;;;;;;10.40;6.45;;;27.00;99.90;;;;;;5094207;28;20210;-91
2023/06/26 07:57:58;;;;;;;7.18;6.22;;;27.10;99.90;;;;;;5086278;28;20200;-90
2023/06/26 08:00:27;;;;;;;7.43;4.90;;;27.10;99.90;;;;;;5094651;28;20324;-91
2023/06/26 08:02:54;;;;;;;7.18;5.25;;;27.20;99.90;;;;;;5074604;28;20203;-91
2023/06/26 08:05:20;;;;;;;7.80;5.07;;;27.30;99.90;;;;;;5074300;28;20200;-91
2023/06/26 08:07:47;;;;;;;9.13;4.65;;;27.40;99.90;;;;;;5074470;28;20208;-91
2023/06/26 08:10:14;;;;;;;8.63;4.90;;;27.50;99.90;;;;;;5074282;28;20192;-90
2023/06/26 08:12:42;;;;;;;6.55;4.10;;;27.50;99.90;;;;;;5074269;28;20207;-91
2023/06/26 08:15:09;;;;;;;4.78;3.92;;;27.60;99.90;;;;;;5074425;28;20188;-92
2023/06/26 08:17:38;;;;;;;5.20;4.70;;;27.70;99.90;;;;;;5074203;28;20192;-93
2023/06/26 08:20:07;;;;;;;6.05;4.38;;;27.70;99.90;;;;;;5073675;28;20216;-92
2023/06/26 08:22:34;;;;;;;4.57;4.18;;;27.80;99.90;;;;;;5074306;28;20202;-92
2023/06/26 08:25:01;;;;;;;5.72;4.25;;;27.80;99.90;;;;;;5074245;28;20204;-92
2023/06/26 08:27:28;;;;;;;6.13;4.53;;;27.80;99.90;;;;;;5074312;28;20196;-92
2023/06/26 08:29:54;;;;;;;4.13;3.72;;;27.80;99.90;;;;;;5085577;28;20215;-92
2023/06/26 08:32:21;;;;;;;6.03;4.50;;;27.90;99.90;;;;;;5099048;28;20195;-93
2023/06/26 08:34:50;;;;;;;5.53;4.50;;;27.90;99.90;;;;;;5098268;28;20199;-93
2023/06/26 08:37:17;;;;;;;6.38;4.78;;;28.00;99.90;;;;;;5094903;28;20246;-92
2023/06/26 08:39:44;;;;;;;19.90;6.13;;;28.00;99.90;;;;;;5098060;28;20226;-93
2023/06/26 08:42:10;;;;;;;7.15;4.60;;;28.00;99.90;;;;;;5118631;28;20198;-93
2023/06/26 08:44:37;;;;;;;5.15;4.63;;;28.10;99.90;;;;;;5118790;28;20190;-92
2023/06/26 08:47:05;;;;;;;5.20;4.68;;;28.10;99.90;;;;;;5118523;28;20198;-92
2023/06/26 08:49:47;;;;;;;7.22;4.63;;;28.20;99.90;;;;;;5118359;28;20193;-92
2023/06/26 08:52:20;;;;;;;6.40;4.30;;;28.20;99.90;;;;;;5118101;28;20226;-93
2023/06/26 08:54:51;;;;;;;6.05;4.38;;;28.20;99.90;;;;;;5099285;28;20230;-93
2023/06/26 08:57:19;;;;;;;4.55;4.13;;;28.30;99.90;;;;;;5098397;28;20198;-92
2023/06/26 08:59:47;;;;;;;4.63;4.05;;;28.40;99.90;;;;;;5097508;28;20284;-92
2023/06/26 09:02:15;;;;;;;9.70;4.55;;;28.50;99.90;;;;;;5111452;28;20800;-92
2023/06/26 09:04:41;;;;;;;4.38;3.97;;;28.60;99.90;;;;;;5116495;28;20194;-93
2023/06/26 09:07:08;;;;;;;6.93;4.47;;;28.60;99.90;;;;;;5098197;28;20217;-93
2023/06/26 09:09:37;;;;;;;9.23;4.30;;;28.70;99.90;;;;;;5097517;28;20256;-93
2023/06/26 09:12:05;;;;;;;7.57;4.85;;;28.70;99.90;;;;;;5097908;28;20606;-93
2023/06/26 09:14:32;;;;;;;6.18;4.65;;;28.70;99.90;;;;;;5097748;28;20677;-92
2023/06/26 09:16:59;;;;;;;5.15;4.32;;;28.70;99.90;;;;;;5110126;28;20201;-93
2023/06/26 09:19:26;;;;;;;7.95;4.78;;;28.70;99.90;;;;;;5117602;28;20686;-93
2023/06/26 09:21:55;;;;;;;7.55;4.47;;;28.70;99.90;;;;;;5114384;28;20218;-92
2023/06/26 09:24:23;;;;;;;5.78;4.95;;;28.80;99.90;;;;;;5097372;28;20207;-92
2023/06/26 09:26:52;;;;;;;6.30;5.00;;;28.80;99.90;;;;;;5097495;28;20199;-93
2023/06/26 09:29:20;;;;;;;5.97;4.82;;;28.90;99.90;;;;;;5097512;28;20206;-93
2023/06/26 09:31:47;;;;;;;5.75;4.38;;;29.00;99.90;;;;;;5097275;28;20198;-93
2023/06/26 09:34:13;;;;;;;5.22;4.22;;;29.10;99.90;;;;;;5097391;28;20200;-92
2023/06/26 09:36:42;;;;;;;5.68;4.43;;;29.20;99.90;;;;;;5097383;28;20257;-92
2023/06/26 09:39:11;;;;;;;5.40;4.57;;;29.30;99.90;;;;;;5097201;28;20191;-93
2023/06/26 09:41:38;;;;;;;6.25;4.75;;;29.10;99.90;;;;;;5100117;28;20199;-92
2023/06/26 09:44:08;;;;;;;4.97;4.32;;;29.00;99.90;;;;;;5097004;28;20252;-92
2023/06/26 09:46:35;;;;;;;5.32;4.32;;;28.90;99.90;;;;;;5096600;28;20200;-93
2023/06/26 09:49:06;;;;;;;5.22;4.60;;;28.80;99.90;;;;;;5097036;28;20195;-93
2023/06/26 09:51:34;;;;;;;4.97;4.53;;;28.90;99.90;;;;;;5096369;28;20220;-93
2023/06/26 09:54:01;;;;;;;7.00;4.85;;;29.00;99.90;;;;;;5076324;28;20207;-93
2023/06/26 09:56:29;;;;;;;6.32;4.80;;;29.30;99.90;;;;;;5091082;28;20196;-93
2023/06/26 09:58:58;;;;;;;5.35;4.50;;;29.40;99.90;;;;;;5108128;28;20205;-93
2023/06/26 10:01:26;;;;;;;6.03;4.30;;;29.60;99.90;;;;;;5108944;28;20219;-93
2023/06/26 10:03:54;;;;;;;6.22;5.00;;;29.70;99.90;;;;;;5096616;28;20289;-92
2023/06/26 10:06:27;;;;;;;5.70;5.10;;;29.90;99.90;;;;;;5096518;28;20298;-93
2023/06/26 10:08:55;;;;;;;8.65;4.80;;;30.10;99.90;;;;;;5076573;28;20206;-92
2023/06/26 10:11:23;;;;;;;5.22;4.53;;;29.90;99.90;;;;;;5092210;28;20196;-93
2023/06/26 10:13:54;;;;;;;8.02;4.75;;;29.90;99.90;;;;;;5096384;28;20183;-93
2023/06/26 10:16:24;;;;;;;6.43;4.80;;;30.00;99.90;;;;;;5096373;28;20194;-93
2023/06/26 10:18:55;;;;;;;5.10;4.60;;;30.10;99.90;;;;;;5096424;28;20208;-94
2023/06/26 10:21:24;;;;;;;5.15;4.65;;;30.00;99.90;;;;;;5096936;28;20207;-93
2023/06/26 10:23:54;;;;;;;6.18;5.25;;;29.80;99.90;;;;;;5096161;28;20210;-93
2023/06/26 10:26:22;;;;;;;5.38;4.47;;;29.90;99.90;;;;;;5111754;28;20205;-93
2023/06/26 10:28:53;;;;;;;5.72;4.60;;;30.00;99.90;;;;;;5109667;28;20199;-93
2023/06/26 10:31:22;;;;;;;6.10;5.10;;;30.20;99.90;;;;;;5095978;28;20674;-92
2023/06/26 10:33:49;;;;;;;5.57;5.07;;;30.20;99.90;;;;;;5096278;28;20199;-92
2023/06/26 10:36:18;;;;;;;5.28;4.57;;;30.30;99.90;;;;;;5096365;28;20196;-93
2023/06/26 10:38:53;;;;;;;5.63;5.03;;;30.60;99.90;;;;;;5096944;28;20207;-93
2023/06/26 10:41:24;;;;;;;5.35;4.30;;;30.90;99.90;;;;;;5087685;28;20268;-94
2023/06/26 10:43:52;;;;;;;5.40;4.55;;;31.20;99.90;;;;;;5087337;28;20215;-93
2023/06/26 10:46:20;;;;;;;9.52;4.47;;;31.40;99.90;;;;;;5095717;28;20293;-93
2023/06/26 10:48:59;;;;;;;8.90;5.45;;;31.40;98.40;;;;;;5095580;28;20305;-93
2023/06/26 10:51:28;;;;;;;5.20;4.70;;;31.40;97.00;;;;;;5095873;28;20223;-93
2023/06/26 10:53:56;;;;;;;9.55;5.78;;;31.50;97.70;;;;;;5094709;28;20262;-94
2023/06/26 10:56:41;;;;;;;6.22;4.72;;;31.60;96.20;;;;;;5084259;28;20552;-93
2023/06/26 10:59:18;;;;;;;4.90;4.45;;;31.60;93.50;;;;;;5095433;28;20545;-93
2023/06/26 11:01:47;;;;;;;6.38;4.55;;;31.60;92.70;;;;;;5095568;28;20195;-93
2023/06/26 11:04:16;;;;;;;7.07;4.78;;;31.70;87.80;;;;;;5092074;28;20223;-93
2023/06/26 11:06:48;;;;;;;4.88;4.35;;;31.80;83.60;;;;;;5091264;28;20227;-93
2023/06/26 11:09:16;;;;;;;5.63;4.80;;;31.70;72.60;;;;;;5075526;28;20283;-94
2023/06/26 11:12:04;;;;;;;5.18;4.68;;;31.70;67.90;;;;;;5075355;28;20218;-95
2023/06/26 11:14:31;;;;;;;5.18;4.68;;;31.70;73.90;;;;;;5089795;28;20632;-94
2023/06/26 11:16:59;;;;;;;10.45;4.68;;;31.70;74.60;;;;;;5095497;28;20199;-93
2023/06/26 11:19:28;;;;;;;4.70;4.20;;;31.60;73.40;;;;;;5102961;28;20201;-93
2023/06/26 11:22:02;;;;;;;5.00;4.50;;;31.60;67.40;;;;;;5115711;28;20211;-93
2023/06/26 11:24:31;;;;;;;4.93;4.43;;;31.80;64.60;;;;;;5115819;28;20179;-93
2023/06/26 11:27:02;;;;;;;4.82;4.38;;;32.00;66.30;;;;;;5098842;28;20231;-93
2023/06/26 11:29:29;;;;;;;7.93;4.80;;;32.30;65.00;;;;;;5095272;28;20551;-94
2023/06/26 11:32:02;;;;;;;6.80;4.50;;;32.40;57.90;;;;;;5095471;28;20191;-94
2023/06/26 11:34:31;;;;;;;4.88;4.47;;;32.40;58.00;;;;;;5086973;28;20279;-93
2023/06/26 11:37:03;;;;;;;5.03;4.53;;;32.40;56.20;;;;;;5066322;28;20203;-94
2023/06/26 11:39:30;;;;;;;8.02;5.00;;;32.20;54.20;;;;;;5074728;28;20191;-93
2023/06/26 11:41:57;;;;;;;7.40;5.40;;;32.00;54.80;;;;;;5093010;28;20263;-94
2023/06/26 11:44:24;;;;;;;6.13;4.93;;;32.10;53.70;;;;;;5094716;28;20192;-93
2023/06/26 11:46:55;;;;;;;5.10;4.60;;;32.40;79.00;;;;;;5094880;28;20207;-93
2023/06/26 11:49:25;;;;;;;5.72;4.80;;;32.60;54.10;;;;;;5094819;28;20202;-94
2023/06/26 11:51:52;;;;;;;5.82;5.20;;;32.80;52.10;;;;;;5092081;28;20219;-93
2023/06/26 11:54:26;;;;;;;5.22;4.50;;;32.80;50.60;;;;;;5088806;28;20203;-94
2023/06/26 11:56:56;;;;;;;5.57;4.90;;;32.90;47.10;;;;;;5094306;28;20251;-92
2023/06/26 11:59:23;;;;;;;5.07;4.50;;;33.00;46.90;;;;;;5109519;28;20240;-94
2023/06/26 12:01:52;;;;;;;6.47;4.63;;;32.90;43.80;;;;;;5115046;28;20264;-94
2023/06/26 12:04:20;;;;;;;8.13;4.80;;;32.80;41.70;;;;;;5115269;28;20539;-93
2023/06/26 12:06:48;;;;;;;7.85;4.80;;;32.70;42.90;;;;;;5112399;28;20220;-94
2023/06/26 12:09:18;;;;;;;5.32;4.82;;;32.60;41.20;;;;;;5094676;28;20269;-93
2023/06/26 12:11:49;;;;;;;7.35;4.80;;;32.60;41.40;;;;;;5094105;28;20202;-93
2023/06/26 12:14:17;;;;;;;5.60;5.10;;;32.50;39.60;;;;;;5094701;28;20187;-94
2023/06/26 12:16:45;;;;;;;5.80;5.18;;;32.30;38.50;;;;;;5094422;28;20294;-94
2023/06/26 12:19:12;;;;;;;6.55;4.90;;;32.00;35.70;;;;;;5094349;28;20196;-94
2023/06/26 12:21:52;;;;;;;5.20;4.80;;;31.80;37.30;;;;;;5094430;28;20577;-92
2023/06/26 12:24:21;;;;;;;6.63;4.75;;;31.60;38.80;;;;;;5094318;28;20220;-93
2023/06/26 12:26:53;;;;;;;11.27;5.10;;;31.70;37.60;;;;;;5093994;28;20203;-93
2023/06/26 12:29:21;;;;;;;9.50;5.05;;;31.70;40.20;;;;;;5094385;28;20282;-94
2023/06/26 12:31:51;;;;;;;6.00;4.70;;;31.60;36.30;;;;;;5094137;28;21013;-94
2023/06/26 12:34:21;;;;;;;7.63;5.40;;;31.40;36.10;;;;;;5094269;28;20654;-94
2023/06/26 12:36:48;;;;;;;5.93;4.72;;;31.30;36.60;;;;;;5094228;28;20192;-94
2023/06/26 12:39:17;;;;;;;9.30;4.93;;;31.20;36.80;;;;;;5094309;28;20282;-94
2023/06/26 12:41:50;;;;;;;7.82;5.03;;;31.20;39.10;;;;;;5094131;28;20204;-93
2023/06/26 12:44:20;;;;;;;12.43;5.32;;;31.20;40.40;;;;;;5094091;28;20191;-93
2023/06/26 12:46:49;;;;;;;15.23;5.50;;;31.30;40.90;;;;;;5094173;28;20207;-94
2023/06/26 12:49:16;;;;;;;8.10;5.07;;;31.30;39.50;;;;;;5094388;28;20214;-94